Terminal Aerodrome Forecast
Issued by NWS Pittsburgh, PA

Current Version | Previous Version | Text Only | Print | Product List | Glossary Off
Versions: 1 2 3 4 5 6 7 8 9 10 11 12 13 14 15 16 17 18 19 20 21 22 23 24 25 26 27 28 29 30 31 32 33

000
FTUS41 KPBZ 182320
TAFPIT
TAF
KPIT 182320Z 1900/2006 27006KT P6SM FEW045
     FM191000 25003KT 5SM BR SCT030
     FM191300 24004KT P6SM SCT045
     FM191700 25009KT P6SM VCTS BKN045CB
     FM192000 30005KT P6SM -SHRA VCTS BKN045CB
     FM200000 28003KT P6SM SCT045=

USA.gov is the U.S. government's official web portal to all federal, state and local government web resources and services.